Time;durP1;ratioP1;P1;durP2;ratioP2;P2;SDS_P1;SDS_P2;PMS_P1;PMS_P2;Temp;Humidity;BMP_temperature;BMP_pressure;BME280_temperature;BME280_humidity;BME280_pressure;Samples;Min_cycle;Max_cycle;Signal;HPM_P1;HPM_P2
2020/12/19 00:03:09;;;;;;;22.63;13.10;;;;;;;;;;10414269;28;20302;-72
2020/12/19 00:08:11;;;;;;;22.73;13.10;;;;;;;;;;10412990;28;20619;-72
2020/12/19 00:13:14;;;;;;;26.40;12.77;;;;;;;;;;10415603;28;20208;-72
2020/12/19 00:18:16;;;;;;;20.47;12.10;;;;;;;;;;10409863;28;20211;-71
2020/12/19 00:23:19;;;;;;;25.13;12.40;;;;;;;;;;10413555;28;20689;-72
2020/12/19 00:28:21;;;;;;;20.33;11.67;;;;;;;;;;10411891;28;20810;-72
2020/12/19 00:33:23;;;;;;;23.40;12.73;;;;;;;;;;10415724;28;20220;-73
2020/12/19 00:38:25;;;;;;;19.83;11.80;;;;;;;;;;10412372;28;20243;-72
2020/12/19 00:43:35;;;;;;;23.97;12.10;;;;;;;;;;10408713;28;20722;-71
2020/12/19 00:48:37;;;;;;;20.23;11.80;;;;;;;;;;10411095;28;20239;-72
2020/12/19 00:53:39;;;;;;;22.47;11.93;;;;;;;;;;10408834;28;20694;-72
2020/12/19 00:58:41;;;;;;;21.23;11.90;;;;;;;;;;10413245;28;20219;-72
2020/12/19 01:03:43;;;;;;;21.07;11.13;;;;;;;;;;10411665;28;20211;-72
2020/12/19 01:08:46;;;;;;;21.90;12.10;;;;;;;;;;10410315;28;20227;-72
2020/12/19 01:14:05;;;;;;;22.27;12.07;;;;;;;;;;10405723;28;20296;-72
2020/12/19 01:19:07;;;;;;;19.60;11.53;;;;;;;;;;10415717;28;20215;-72
2020/12/19 01:24:09;;;;;;;21.90;12.00;;;;;;;;;;10418542;28;20788;-72
2020/12/19 01:29:11;;;;;;;20.07;11.57;;;;;;;;;;10421217;28;20721;-72
2020/12/19 01:34:13;;;;;;;21.57;12.40;;;;;;;;;;10421133;28;20231;-72
2020/12/19 01:39:15;;;;;;;23.27;12.23;;;;;;;;;;10419847;28;20231;-73
2020/12/19 01:44:18;;;;;;;22.30;12.23;;;;;;;;;;10423513;28;20214;-72
2020/12/19 01:49:20;;;;;;;23.07;12.17;;;;;;;;;;10411054;28;20667;-73
2020/12/19 01:54:22;;;;;;;23.27;12.60;;;;;;;;;;10417759;28;20760;-72
2020/12/19 01:59:25;;;;;;;22.60;12.40;;;;;;;;;;10418787;28;20216;-71
2020/12/19 02:04:27;;;;;;;21.50;12.13;;;;;;;;;;10417429;28;20219;-71
2020/12/19 02:09:34;;;;;;;23.17;12.27;;;;;;;;;;10408886;28;20232;-71
2020/12/19 02:14:38;;;;;;;21.77;11.70;;;;;;;;;;10419576;28;20208;-72
2020/12/19 02:19:39;;;;;;;22.67;12.23;;;;;;;;;;10418460;28;20580;-71
2020/12/19 02:24:42;;;;;;;24.97;13.20;;;;;;;;;;10418143;28;20725;-71
2020/12/19 02:29:44;;;;;;;24.70;13.37;;;;;;;;;;10425978;28;20232;-71
2020/12/19 02:34:46;;;;;;;26.80;13.60;;;;;;;;;;10418142;28;20231;-71
2020/12/19 02:39:48;;;;;;;25.93;13.10;;;;;;;;;;10412005;28;20239;-71
2020/12/19 02:44:50;;;;;;;22.43;12.30;;;;;;;;;;10417153;28;20227;-72
2020/12/19 02:49:52;;;;;;;25.20;13.57;;;;;;;;;;10408978;28;20655;-72
2020/12/19 02:54:55;;;;;;;26.23;13.47;;;;;;;;;;10418775;28;21373;-72
2020/12/19 02:59:57;;;;;;;26.80;13.67;;;;;;;;;;10415759;28;20298;-71
2020/12/19 03:04:59;;;;;;;27.43;14.10;;;;;;;;;;10404244;28;20224;-71
2020/12/19 03:10:01;;;;;;;26.17;13.77;;;;;;;;;;10411291;28;20243;-70
2020/12/19 03:15:03;;;;;;;25.90;13.30;;;;;;;;;;10412545;28;20215;-71
2020/12/19 03:20:05;;;;;;;28.03;13.67;;;;;;;;;;10413439;28;20215;-70
2020/12/19 03:25:08;;;;;;;26.13;13.23;;;;;;;;;;10412119;28;20671;-70
2020/12/19 03:30:19;;;;;;;28.60;14.20;;;;;;;;;;10412977;28;20246;-71
2020/12/19 03:35:21;;;;;;;27.23;14.57;;;;;;;;;;10409296;28;20697;-69
2020/12/19 03:40:23;;;;;;;28.53;14.10;;;;;;;;;;10410404;28;20780;-69
2020/12/19 03:45:25;;;;;;;28.67;14.13;;;;;;;;;;10408012;28;20572;-70
2020/12/19 03:50:27;;;;;;;29.47;14.27;;;;;;;;;;10414014;28;20765;-69
2020/12/19 03:55:30;;;;;;;28.43;14.10;;;;;;;;;;10409102;28;20207;-70
2020/12/19 04:00:32;;;;;;;30.67;13.80;;;;;;;;;;10407722;28;20695;-69
2020/12/19 04:05:34;;;;;;;27.23;13.80;;;;;;;;;;10405847;28;20212;-69
2020/12/19 04:10:36;;;;;;;29.60;15.03;;;;;;;;;;10411658;28;20250;-69
2020/12/19 04:15:38;;;;;;;27.00;14.13;;;;;;;;;;10410514;28;20738;-69
2020/12/19 04:20:40;;;;;;;28.93;14.77;;;;;;;;;;10410872;28;20246;-69
2020/12/19 04:25:43;;;;;;;31.83;14.47;;;;;;;;;;10411318;28;20219;-68
2020/12/19 04:30:45;;;;;;;25.07;13.63;;;;;;;;;;10412352;28;20231;-69
2020/12/19 04:35:47;;;;;;;27.17;14.07;;;;;;;;;;10405609;28;20394;-69
2020/12/19 04:40:50;;;;;;;31.13;14.20;;;;;;;;;;10409394;28;20246;-69
2020/12/19 04:45:52;;;;;;;29.50;14.40;;;;;;;;;;10407780;28;20212;-69
2020/12/19 04:50:54;;;;;;;26.67;13.50;;;;;;;;;;10412702;28;20720;-70
2020/12/19 04:55:59;;;;;;;31.43;14.00;;;;;;;;;;10408808;28;20207;-71
2020/12/19 05:01:00;;;;;;;30.13;14.43;;;;;;;;;;10412040;28;20219;-70
2020/12/19 05:06:03;;;;;;;29.77;14.87;;;;;;;;;;10400397;28;20846;-70
2020/12/19 05:11:05;;;;;;;31.40;14.53;;;;;;;;;;10413550;28;20674;-70
2020/12/19 05:16:07;;;;;;;31.87;15.23;;;;;;;;;;10415889;28;20215;-70
2020/12/19 05:21:10;;;;;;;29.17;14.20;;;;;;;;;;10406805;28;20969;-70
2020/12/19 05:26:13;;;;;;;33.53;15.60;;;;;;;;;;10412683;28;20262;-70
2020/12/19 05:31:15;;;;;;;32.77;15.93;;;;;;;;;;10407931;28;20784;-70
2020/12/19 05:36:18;;;;;;;30.17;14.60;;;;;;;;;;10404203;28;20745;-70
2020/12/19 05:41:23;;;;;;;30.27;14.27;;;;;;;;;;10405690;28;20235;-69
2020/12/19 05:46:26;;;;;;;29.00;14.10;;;;;;;;;;10408482;28;20214;-70
2020/12/19 05:51:29;;;;;;;35.33;15.73;;;;;;;;;;10401847;28;20708;-71
2020/12/19 05:56:34;;;;;;;31.70;15.40;;;;;;;;;;10407681;28;20223;-70
2020/12/19 06:01:37;;;;;;;29.43;15.00;;;;;;;;;;10404033;28;20674;-70
2020/12/19 06:06:40;;;;;;;30.60;15.50;;;;;;;;;;10406038;28;20239;-70
2020/12/19 06:11:47;;;;;;;29.37;15.37;;;;;;;;;;10412893;28;20207;-70
2020/12/19 06:16:51;;;;;;;29.30;15.40;;;;;;;;;;10413904;28;20211;-71
2020/12/19 06:21:53;;;;;;;31.70;15.63;;;;;;;;;;10410848;28;20216;-70
2020/12/19 06:26:56;;;;;;;29.73;15.50;;;;;;;;;;10410213;28;20246;-70
2020/12/19 06:31:58;;;;;;;30.60;15.03;;;;;;;;;;10409126;28;20216;-70
2020/12/19 06:37:05;;;;;;;28.10;15.10;;;;;;;;;;10407763;28;20239;-70
2020/12/19 06:42:26;;;;;;;33.57;15.37;;;;;;;;;;10412347;28;20210;-70
2020/12/19 06:47:31;;;;;;;29.80;14.87;;;;;;;;;;10419941;28;20235;-69
2020/12/19 06:52:32;;;;;;;30.13;14.90;;;;;;;;;;10408973;28;20208;-69
2020/12/19 06:57:35;;;;;;;30.03;14.30;;;;;;;;;;10414725;28;20233;-69
2020/12/19 07:02:47;;;;;;;28.87;14.73;;;;;;;;;;10405281;28;21206;-70
2020/12/19 07:07:50;;;;;;;26.73;14.50;;;;;;;;;;10407121;28;20234;-69
2020/12/19 07:12:52;;;;;;;31.33;14.77;;;;;;;;;;10413047;28;20259;-69
2020/12/19 07:17:54;;;;;;;31.17;15.20;;;;;;;;;;10409802;28;20224;-70
2020/12/19 07:22:56;;;;;;;30.50;14.73;;;;;;;;;;10410531;28;20849;-70
2020/12/19 07:27:59;;;;;;;30.53;15.23;;;;;;;;;;10407912;28;20721;-69
2020/12/19 07:33:01;;;;;;;30.77;15.30;;;;;;;;;;10401820;28;20235;-70
2020/12/19 07:38:03;;;;;;;27.13;14.30;;;;;;;;;;10408449;28;20786;-69
2020/12/19 07:43:06;;;;;;;27.80;14.37;;;;;;;;;;10406126;28;20629;-70
2020/12/19 07:48:08;;;;;;;26.87;14.03;;;;;;;;;;10413381;28;20301;-70
2020/12/19 07:53:10;;;;;;;29.30;14.17;;;;;;;;;;10404736;28;20216;-70
2020/12/19 07:58:14;;;;;;;28.03;13.97;;;;;;;;;;10405521;28;20648;-69
2020/12/19 08:03:16;;;;;;;25.70;13.43;;;;;;;;;;10403321;28;20701;-70
2020/12/19 08:08:18;;;;;;;27.53;13.90;;;;;;;;;;10395821;28;20227;-70
2020/12/19 08:13:23;;;;;;;22.87;13.33;;;;;;;;;;10406534;28;20217;-70
2020/12/19 08:18:25;;;;;;;26.03;13.67;;;;;;;;;;10415555;28;20326;-69
2020/12/19 08:23:27;;;;;;;27.33;13.90;;;;;;;;;;10400860;28;20208;-70
2020/12/19 08:28:31;;;;;;;23.47;13.17;;;;;;;;;;10403851;28;21855;-70
2020/12/19 08:33:34;;;;;;;23.97;12.73;;;;;;;;;;10402454;28;20294;-69
2020/12/19 08:38:36;;;;;;;24.10;12.90;;;;;;;;;;10399200;28;20270;-70
2020/12/19 08:43:40;;;;;;;27.03;13.63;;;;;;;;;;10407695;28;20215;-71
2020/12/19 08:48:42;;;;;;;23.20;12.80;;;;;;;;;;10394038;28;20239;-70
2020/12/19 08:53:44;;;;;;;25.70;13.33;;;;;;;;;;10395937;28;20268;-73
2020/12/19 08:58:53;;;;;;;23.33;13.03;;;;;;;;;;10400541;28;20220;-72
2020/12/19 09:03:55;;;;;;;26.87;13.67;;;;;;;;;;10399281;28;20211;-74
2020/12/19 09:08:57;;;;;;;23.50;12.60;;;;;;;;;;10395451;28;20239;-74
2020/12/19 09:14:05;;;;;;;23.90;13.27;;;;;;;;;;10397105;28;20907;-68
2020/12/19 09:19:12;;;;;;;23.77;13.00;;;;;;;;;;10394083;28;20216;-69
2020/12/19 09:24:14;;;;;;;24.07;12.53;;;;;;;;;;10395466;28;20246;-69
2020/12/19 09:29:17;;;;;;;24.77;12.87;;;;;;;;;;10396257;28;20235;-70
2020/12/19 09:34:18;;;;;;;23.43;12.47;;;;;;;;;;10394313;28;20235;-71
2020/12/19 09:39:20;;;;;;;25.00;12.30;;;;;;;;;;10389055;28;20525;-73
2020/12/19 09:44:23;;;;;;;21.93;12.10;;;;;;;;;;10402875;28;20709;-69
2020/12/19 09:49:25;;;;;;;22.77;12.07;;;;;;;;;;10401869;28;20239;-69
2020/12/19 09:54:26;;;;;;;21.97;11.43;;;;;;;;;;10407253;28;20383;-71
2020/12/19 09:59:29;;;;;;;26.47;11.80;;;;;;;;;;10410639;28;20220;-72
2020/12/19 10:04:31;;;;;;;21.20;11.17;;;;;;;;;;10400505;28;20422;-72
2020/12/19 10:09:33;;;;;;;20.00;10.93;;;;;;;;;;10403884;28;20634;-72
2020/12/19 10:14:35;;;;;;;21.57;11.40;;;;;;;;;;10403098;28;20226;-72
2020/12/19 10:19:38;;;;;;;19.03;10.30;;;;;;;;;;10405231;28;20208;-72
2020/12/19 10:24:41;;;;;;;19.93;9.97;;;;;;;;;;10402564;28;20222;-71
2020/12/19 10:29:43;;;;;;;18.10;10.43;;;;;;;;;;10403348;28;20239;-72
2020/12/19 10:34:45;;;;;;;18.70;10.00;;;;;;;;;;10404308;28;20243;-72
2020/12/19 10:39:47;;;;;;;18.97;9.33;;;;;;;;;;10402224;28;20239;-73
2020/12/19 10:44:50;;;;;;;16.73;10.20;;;;;;;;;;10400606;28;20220;-71
2020/12/19 10:49:52;;;;;;;21.13;9.70;;;;;;;;;;10400116;28;20244;-72
2020/12/19 10:54:54;;;;;;;23.10;9.60;;;;;;;;;;10403486;28;20234;-72
2020/12/19 10:59:57;;;;;;;19.87;9.63;;;;;;;;;;10406858;28;20974;-73
2020/12/19 11:04:59;;;;;;;17.17;9.80;;;;;;;;;;10413336;28;20309;-73
2020/12/19 11:10:01;;;;;;;18.27;8.90;;;;;;;;;;10409733;28;20498;-74
2020/12/19 11:15:03;;;;;;;17.13;8.97;;;;;;;;;;10407927;28;20699;-74
2020/12/19 11:20:08;;;;;;;18.33;8.80;;;;;;;;;;10415157;28;20208;-74
2020/12/19 11:25:09;;;;;;;13.57;7.80;;;;;;;;;;10404724;28;20211;-74
2020/12/19 11:30:12;;;;;;;16.50;7.93;;;;;;;;;;10410618;28;20246;-76
2020/12/19 11:35:14;;;;;;;15.27;6.60;;;;;;;;;;10407953;28;20262;-75
2020/12/19 11:40:15;;;;;;;13.53;7.23;;;;;;;;;;10406733;28;20236;-75
2020/12/19 11:45:18;;;;;;;11.03;6.63;;;;;;;;;;10415089;28;20226;-75
2020/12/19 11:50:20;;;;;;;12.53;6.27;;;;;;;;;;10408234;28;20230;-73
2020/12/19 11:55:22;;;;;;;11.73;6.70;;;;;;;;;;10413449;28;20215;-74
2020/12/19 12:00:24;;;;;;;12.27;6.20;;;;;;;;;;10411043;28;20410;-74
2020/12/19 12:05:26;;;;;;;9.70;5.60;;;;;;;;;;10408156;28;20207;-74
2020/12/19 12:10:28;;;;;;;17.37;6.33;;;;;;;;;;10410389;28;20235;-74
2020/12/19 12:15:31;;;;;;;11.27;6.17;;;;;;;;;;10410687;28;20598;-74
2020/12/19 12:20:32;;;;;;;14.00;6.33;;;;;;;;;;10406887;28;20215;-74
2020/12/19 12:25:34;;;;;;;9.43;5.20;;;;;;;;;;10405556;28;20220;-74
2020/12/19 12:30:37;;;;;;;10.90;4.63;;;;;;;;;;10401265;28;20239;-74
2020/12/19 12:35:39;;;;;;;9.00;4.37;;;;;;;;;;10405031;28;20742;-73
2020/12/19 12:40:41;;;;;;;14.13;4.33;;;;;;;;;;10404933;28;20227;-75
2020/12/19 12:45:44;;;;;;;10.07;4.00;;;;;;;;;;10409057;28;20858;-77
2020/12/19 12:50:46;;;;;;;13.97;4.30;;;;;;;;;;10404772;28;20248;-77
2020/12/19 12:55:49;;;;;;;7.70;3.87;;;;;;;;;;10411350;28;20212;-77
2020/12/19 13:00:52;;;;;;;9.50;3.90;;;;;;;;;;10404981;28;20223;-74
2020/12/19 13:05:54;;;;;;;7.17;3.60;;;;;;;;;;10408390;28;20218;-74
2020/12/19 13:10:56;;;;;;;8.37;4.00;;;;;;;;;;10404570;28;20247;-75
2020/12/19 13:15:58;;;;;;;7.77;4.23;;;;;;;;;;10415356;28;20219;-74
2020/12/19 13:21:00;;;;;;;7.23;3.70;;;;;;;;;;10409192;28;20211;-73
2020/12/19 13:26:02;;;;;;;9.20;4.30;;;;;;;;;;10414658;28;20230;-75
2020/12/19 13:31:05;;;;;;;12.23;4.17;;;;;;;;;;10409519;28;20239;-75
2020/12/19 13:36:07;;;;;;;11.47;4.73;;;;;;;;;;10413927;28;20338;-75
2020/12/19 13:41:09;;;;;;;10.23;5.20;;;;;;;;;;10421874;28;20224;-75
2020/12/19 13:46:13;;;;;;;13.77;4.87;;;;;;;;;;10419344;28;20216;-68
2020/12/19 13:51:15;;;;;;;11.53;4.67;;;;;;;;;;10414630;28;20239;-74
2020/12/19 13:56:20;;;;;;;14.03;4.80;;;;;;;;;;10416661;28;20212;-76
2020/12/19 14:01:23;;;;;;;9.33;4.73;;;;;;;;;;10413754;28;20637;-69
2020/12/19 14:06:28;;;;;;;13.73;4.90;;;;;;;;;;10407085;28;20226;-69
2020/12/19 14:11:30;;;;;;;9.10;5.40;;;;;;;;;;10408276;28;20246;-73
2020/12/19 14:16:33;;;;;;;12.90;4.83;;;;;;;;;;10403464;28;20570;-74
2020/12/19 14:21:35;;;;;;;10.53;4.80;;;;;;;;;;10405436;28;20223;-74
2020/12/19 14:26:38;;;;;;;11.20;4.80;;;;;;;;;;10405999;28;20223;-72
2020/12/19 14:31:41;;;;;;;9.87;4.73;;;;;;;;;;10403354;28;20314;-75
2020/12/19 14:36:43;;;;;;;11.87;5.00;;;;;;;;;;10404585;28;20262;-75
2020/12/19 14:41:46;;;;;;;16.10;4.90;;;;;;;;;;10408228;28;20250;-75
2020/12/19 14:46:49;;;;;;;7.83;4.47;;;;;;;;;;10404508;28;20702;-75
2020/12/19 14:51:51;;;;;;;9.20;4.60;;;;;;;;;;10403206;28;20266;-73
2020/12/19 14:56:53;;;;;;;10.10;5.00;;;;;;;;;;10404246;28;20698;-72
2020/12/19 15:01:56;;;;;;;12.93;5.63;;;;;;;;;;10402181;28;20855;-72
2020/12/19 15:06:57;;;;;;;9.50;4.87;;;;;;;;;;10401017;28;20215;-71
2020/12/19 15:11:59;;;;;;;8.70;5.23;;;;;;;;;;10403456;28;20298;-74
2020/12/19 15:17:02;;;;;;;9.03;5.60;;;;;;;;;;10402995;28;20298;-73
2020/12/19 15:22:04;;;;;;;14.90;8.23;;;;;;;;;;10408261;28;20216;-75
2020/12/19 15:27:06;;;;;;;13.27;6.20;;;;;;;;;;10403993;28;20604;-72
2020/12/19 15:32:09;;;;;;;14.83;6.27;;;;;;;;;;10404756;28;20243;-71
2020/12/19 15:37:10;;;;;;;10.13;5.83;;;;;;;;;;10400008;28;20504;-73
2020/12/19 15:42:12;;;;;;;12.20;6.43;;;;;;;;;;10406384;28;20785;-74
2020/12/19 15:47:15;;;;;;;11.53;6.73;;;;;;;;;;10401907;28;20219;-73
2020/12/19 15:52:17;;;;;;;17.63;6.97;;;;;;;;;;10405829;28;20242;-73
2020/12/19 15:57:18;;;;;;;12.57;7.00;;;;;;;;;;10404106;28;20219;-72
2020/12/19 16:02:21;;;;;;;14.10;7.20;;;;;;;;;;10407597;28;20655;-74
2020/12/19 16:07:22;;;;;;;11.73;7.40;;;;;;;;;;10400884;28;20227;-72
2020/12/19 16:12:24;;;;;;;14.37;7.50;;;;;;;;;;10402267;28;20211;-71
2020/12/19 16:17:27;;;;;;;10.50;7.33;;;;;;;;;;10404944;28;20215;-74
2020/12/19 16:22:29;;;;;;;13.23;7.40;;;;;;;;;;10405210;28;20676;-72
2020/12/19 16:27:31;;;;;;;14.27;7.23;;;;;;;;;;10398837;28;20626;-73
2020/12/19 16:32:33;;;;;;;15.07;7.80;;;;;;;;;;10390399;28;20238;-73
2020/12/19 16:37:35;;;;;;;15.83;7.97;;;;;;;;;;10401717;28;20244;-73
2020/12/19 16:42:37;;;;;;;18.33;8.87;;;;;;;;;;10399083;28;20211;-74
2020/12/19 16:47:40;;;;;;;13.73;8.03;;;;;;;;;;10402501;28;20375;-71
2020/12/19 16:52:44;;;;;;;15.63;7.57;;;;;;;;;;10395855;28;20222;-69
2020/12/19 16:57:46;;;;;;;15.67;8.17;;;;;;;;;;10403104;28;20946;-73
2020/12/19 17:02:51;;;;;;;14.90;8.40;;;;;;;;;;10399125;28;20227;-70
2020/12/19 17:07:53;;;;;;;15.53;9.17;;;;;;;;;;10394929;28;20268;-69
2020/12/19 17:12:55;;;;;;;14.27;9.33;;;;;;;;;;10395578;28;22367;-69
2020/12/19 17:17:57;;;;;;;17.30;8.97;;;;;;;;;;10396939;28;20222;-69
2020/12/19 17:22:59;;;;;;;16.43;8.97;;;;;;;;;;10394213;28;20604;-69
2020/12/19 17:28:01;;;;;;;13.73;8.10;;;;;;;;;;10400974;28;20231;-69
2020/12/19 17:33:05;;;;;;;14.93;8.73;;;;;;;;;;10400724;28;20222;-72
2020/12/19 17:38:06;;;;;;;13.87;8.03;;;;;;;;;;10399141;28;20250;-73
2020/12/19 17:43:11;;;;;;;13.40;7.73;;;;;;;;;;10403711;28;20285;-72
2020/12/19 17:48:13;;;;;;;16.20;7.47;;;;;;;;;;10395186;28;20460;-73
2020/12/19 17:53:15;;;;;;;13.57;7.57;;;;;;;;;;10392151;28;20212;-73
2020/12/19 17:58:17;;;;;;;14.57;7.37;;;;;;;;;;10401458;28;20215;-73
2020/12/19 18:03:20;;;;;;;16.17;8.00;;;;;;;;;;10399449;28;20220;-72
2020/12/19 18:08:22;;;;;;;17.13;7.63;;;;;;;;;;10404060;28;20257;-71
2020/12/19 18:13:24;;;;;;;15.33;7.50;;;;;;;;;;10404626;28;20212;-71
2020/12/19 18:18:28;;;;;;;15.97;7.93;;;;;;;;;;10408580;28;20212;-71
2020/12/19 18:23:30;;;;;;;17.40;6.90;;;;;;;;;;10401278;28;20689;-70
2020/12/19 18:28:32;;;;;;;14.83;7.67;;;;;;;;;;10404362;28;20728;-70
2020/12/19 18:33:35;;;;;;;14.33;7.53;;;;;;;;;;10406739;28;20216;-71
2020/12/19 18:38:37;;;;;;;18.47;9.83;;;;;;;;;;10405576;28;20238;-72
2020/12/19 18:43:39;;;;;;;15.07;8.20;;;;;;;;;;10404279;28;20208;-72
2020/12/19 18:48:42;;;;;;;16.67;8.07;;;;;;;;;;10403998;28;20235;-73
2020/12/19 18:53:44;;;;;;;15.37;7.60;;;;;;;;;;10398488;28;20218;-74
2020/12/19 18:58:46;;;;;;;17.27;7.90;;;;;;;;;;10407136;28;20215;-73
2020/12/19 19:03:49;;;;;;;18.10;9.13;;;;;;;;;;10409400;28;20212;-73
2020/12/19 19:08:53;;;;;;;15.80;7.50;;;;;;;;;;10403885;28;20346;-73
2020/12/19 19:13:55;;;;;;;15.17;8.13;;;;;;;;;;10405208;28;20222;-70
2020/12/19 19:18:58;;;;;;;16.93;8.70;;;;;;;;;;10399540;28;20788;-72
